Time;durP1;ratioP1;P1;durP2;ratioP2;P2;SDS_P1;SDS_P2;PMS_P1;PMS_P2;Temp;Humidity;BMP_temperature;BMP_pressure;BME280_temperature;BME280_humidity;BME280_pressure;Samples;Min_cycle;Max_cycle;Signal;HPM_P1;HPM_P2
2021/08/09 00:01:34;;;;;;;0.00;0.00;;;;;;;;;;10539116;28;20071;-26
2021/08/09 00:06:38;;;;;;;0.15;0.00;;;;;;;;;;10537735;28;20042;-24
2021/08/09 00:11:40;;;;;;;0.00;0.00;;;;;;;;;;10539767;28;20070;-26
2021/08/09 00:16:43;;;;;;;0.03;0.03;;;;;;;;;;10535272;28;20039;-25
2021/08/09 00:21:47;;;;;;;0.08;0.08;;;;;;;;;;10539601;28;20067;-27
2021/08/09 00:26:50;;;;;;;0.00;0.00;;;;;;;;;;10542352;28;20040;-25
2021/08/09 00:31:53;;;;;;;0.10;0.10;;;;;;;;;;10539376;28;20431;-26
2021/08/09 00:36:57;;;;;;;0.10;0.10;;;;;;;;;;10539318;28;20042;-25
2021/08/09 00:42:00;;;;;;;0.00;0.00;;;;;;;;;;10538719;28;20066;-24
2021/08/09 00:47:03;;;;;;;0.10;0.10;;;;;;;;;;10539268;28;20098;-24
2021/08/09 00:52:09;;;;;;;0.00;0.00;;;;;;;;;;10530604;28;20138;-24
2021/08/09 00:57:12;;;;;;;0.00;0.00;;;;;;;;;;10536293;28;20543;-24
2021/08/09 01:02:19;;;;;;;0.00;0.00;;;;;;;;;;10539420;28;20047;-23
2021/08/09 01:07:25;;;;;;;0.00;0.00;;;;;;;;;;10534842;28;20056;-24
2021/08/09 01:12:32;;;;;;;0.00;0.00;;;;;;;;;;10545261;28;20044;-24
2021/08/09 01:17:38;;;;;;;0.00;0.00;;;;;;;;;;10541190;28;20055;-29
2021/08/09 01:22:47;;;;;;;0.05;0.05;;;;;;;;;;10543787;28;20138;-24
2021/08/09 01:27:53;;;;;;;0.00;0.00;;;;;;;;;;10544502;28;20048;-25
2021/08/09 01:32:56;;;;;;;0.00;0.00;;;;;;;;;;10543928;28;20143;-24
2021/08/09 01:38:00;;;;;;;0.00;0.00;;;;;;;;;;10534887;28;20602;-24
2021/08/09 01:43:09;;;;;;;0.00;0.00;;;;;;;;;;10536325;28;20040;-25
2021/08/09 01:48:12;;;;;;;0.03;0.03;;;;;;;;;;10542421;28;20089;-24
2021/08/09 01:53:17;;;;;;;0.00;0.00;;;;;;;;;;10542913;28;20162;-25
2021/08/09 01:58:22;;;;;;;0.00;0.00;;;;;;;;;;10545470;28;20047;-24
2021/08/09 02:03:26;;;;;;;0.00;0.00;;;;;;;;;;10541258;28;20167;-24
2021/08/09 02:08:29;;;;;;;0.00;0.00;;;;;;;;;;10538984;28;20064;-24
2021/08/09 02:13:37;;;;;;;0.00;0.00;;;;;;;;;;10547139;28;20040;-25
2021/08/09 02:18:45;;;;;;;0.00;0.00;;;;;;;;;;10544408;28;20056;-26
2021/08/09 02:23:51;;;;;;;0.00;0.00;;;;;;;;;;10539218;28;20400;-24
2021/08/09 02:29:01;;;;;;;0.10;0.10;;;;;;;;;;10544560;28;20059;-25
2021/08/09 02:34:05;;;;;;;0.00;0.00;;;;;;;;;;10537596;28;20044;-24
2021/08/09 02:39:08;;;;;;;0.10;0.10;;;;;;;;;;10526827;28;20087;-24
2021/08/09 02:44:14;;;;;;;0.00;0.00;;;;;;;;;;10536091;28;20690;-23
2021/08/09 02:49:18;;;;;;;0.08;0.08;;;;;;;;;;10529608;28;20058;-23
2021/08/09 02:54:21;;;;;;;0.05;0.05;;;;;;;;;;10518618;28;20036;-24
2021/08/09 02:59:25;;;;;;;0.00;0.00;;;;;;;;;;10531993;28;20809;-24
2021/08/09 03:04:28;;;;;;;0.00;0.00;;;;;;;;;;10539258;28;20040;-25
2021/08/09 03:09:31;;;;;;;0.00;0.00;;;;;;;;;;10533761;28;20048;-25
2021/08/09 03:14:36;;;;;;;0.00;0.00;;;;;;;;;;10531536;28;20047;-24
2021/08/09 03:19:39;;;;;;;0.00;0.00;;;;;;;;;;10537165;28;20656;-24
2021/08/09 03:24:41;;;;;;;0.00;0.00;;;;;;;;;;10538588;28;20044;-26
2021/08/09 03:29:45;;;;;;;0.00;0.00;;;;;;;;;;10537971;28;20044;-24
2021/08/09 03:34:48;;;;;;;0.00;0.00;;;;;;;;;;10541193;28;20679;-24
2021/08/09 03:39:51;;;;;;;0.00;0.00;;;;;;;;;;10536166;28;20066;-24
2021/08/09 03:44:55;;;;;;;0.10;0.10;;;;;;;;;;10535079;28;20025;-24
2021/08/09 03:49:58;;;;;;;0.00;0.00;;;;;;;;;;10536228;28;20767;-26
2021/08/09 03:55:01;;;;;;;0.00;0.00;;;;;;;;;;10539070;28;20186;-25
2021/08/09 04:00:06;;;;;;;0.00;0.00;;;;;;;;;;10536153;28;20587;-26
2021/08/09 04:05:15;;;;;;;0.00;0.00;;;;;;;;;;10536117;28;20138;-24
2021/08/09 04:10:17;;;;;;;0.00;0.00;;;;;;;;;;10540449;28;20055;-25
2021/08/09 04:15:24;;;;;;;0.10;0.03;;;;;;;;;;10532726;28;20071;-24
2021/08/09 04:20:27;;;;;;;0.00;0.00;;;;;;;;;;10518192;28;20068;-24
2021/08/09 07:51:59;;;;;;;0.00;0.00;;;;;;;;;;10551396;27;20401;-23
2021/08/09 07:57:04;;;;;;;0.00;0.00;;;;;;;;;;10518844;28;20058;-23
2021/08/09 08:02:08;;;;;;;0.00;0.00;;;;;;;;;;10510241;28;20545;-23
2021/08/09 08:07:13;;;;;;;0.00;0.00;;;;;;;;;;10518907;28;20138;-23
2021/08/09 08:12:16;;;;;;;0.00;0.00;;;;;;;;;;10520073;28;20075;-23
2021/08/09 08:17:20;;;;;;;0.00;0.00;;;;;;;;;;10513653;28;20040;-23
2021/08/09 08:22:25;;;;;;;0.00;0.00;;;;;;;;;;10512484;28;20567;-23
2021/08/09 08:27:28;;;;;;;0.00;0.00;;;;;;;;;;10521323;28;20146;-22
2021/08/09 08:32:32;;;;;;;0.00;0.00;;;;;;;;;;10520439;28;20058;-23
2021/08/09 08:37:37;;;;;;;0.03;0.00;;;;;;;;;;10536847;28;20039;-23
2021/08/09 08:42:40;;;;;;;0.00;0.00;;;;;;;;;;10517666;28;20127;-23
2021/08/09 08:47:43;;;;;;;0.00;0.00;;;;;;;;;;10516615;28;20074;-24
2021/08/09 08:52:48;;;;;;;0.00;0.00;;;;;;;;;;10530718;28;20056;-25
2021/08/09 08:57:52;;;;;;;0.00;0.00;;;;;;;;;;10519709;28;20071;-24
2021/08/09 09:02:56;;;;;;;0.00;0.00;;;;;;;;;;10533606;28;20168;-26
2021/08/09 09:08:00;;;;;;;0.00;0.00;;;;;;;;;;10534043;28;20051;-25
2021/08/09 09:13:07;;;;;;;0.00;0.00;;;;;;;;;;10537914;28;20047;-25
2021/08/09 09:18:09;;;;;;;0.00;0.00;;;;;;;;;;10546493;28;20508;-23
2021/08/09 09:23:15;;;;;;;0.00;0.00;;;;;;;;;;10539386;28;20697;-23
2021/08/09 09:28:22;;;;;;;0.00;0.00;;;;;;;;;;10539563;28;20044;-23
2021/08/09 09:33:24;;;;;;;0.00;0.00;;;;;;;;;;10522480;28;20048;-24
2021/08/09 09:38:28;;;;;;;0.00;0.00;;;;;;;;;;10540675;28;20032;-23
2021/08/09 09:43:37;;;;;;;0.00;0.00;;;;;;;;;;10535503;28;20048;-23
2021/08/09 09:48:40;;;;;;;0.00;0.00;;;;;;;;;;10535157;28;20353;-23
2021/08/09 09:53:45;;;;;;;0.00;0.00;;;;;;;;;;10531930;28;20412;-23
2021/08/09 09:58:47;;;;;;;0.00;0.00;;;;;;;;;;10536557;28;20054;-23
2021/08/09 10:03:51;;;;;;;0.00;0.00;;;;;;;;;;10527294;28;20040;-23
2021/08/09 10:08:55;;;;;;;0.00;0.00;;;;;;;;;;10523217;28;20032;-25
2021/08/09 10:14:00;;;;;;;0.00;0.00;;;;;;;;;;10536032;28;20048;-24
2021/08/09 10:19:03;;;;;;;0.00;0.00;;;;;;;;;;10546929;28;20047;-24
2021/08/09 10:24:07;;;;;;;0.00;0.00;;;;;;;;;;10542057;28;20044;-23
2021/08/09 10:29:11;;;;;;;0.00;0.00;;;;;;;;;;10542303;28;20397;-24
2021/08/09 10:34:32;;;;;;;0.00;0.00;;;;;;;;;;10523940;28;20048;-24
2021/08/09 10:39:54;;;;;;;0.00;0.00;;;;;;;;;;10543784;28;20048;-23
2021/08/09 10:44:58;;;;;;;0.00;0.00;;;;;;;;;;10542011;28;20044;-24
2021/08/09 10:50:01;;;;;;;0.00;0.00;;;;;;;;;;10547661;28;20059;-24
2021/08/09 10:55:24;;;;;;;0.00;0.00;;;;;;;;;;10526276;28;20553;-24
2021/08/09 11:00:41;;;;;;;0.00;0.00;;;;;;;;;;10541798;28;20516;-24
2021/08/09 11:05:46;;;;;;;0.00;0.00;;;;;;;;;;10543517;28;20496;-23
2021/08/09 11:11:02;;;;;;;0.00;0.00;;;;;;;;;;10543349;28;20036;-23
2021/08/09 11:16:05;;;;;;;0.00;0.00;;;;;;;;;;10540074;28;20757;-24
2021/08/09 11:21:10;;;;;;;0.00;0.00;;;;;;;;;;10545544;28;20048;-23
2021/08/09 11:26:18;;;;;;;0.00;0.00;;;;;;;;;;10542907;28;20419;-24
2021/08/09 11:31:21;;;;;;;0.77;0.00;;;;;;;;;;10541866;28;20036;-24
2021/08/09 11:36:25;;;;;;;0.00;0.00;;;;;;;;;;10543030;28;20116;-25
2021/08/09 11:41:29;;;;;;;0.00;0.00;;;;;;;;;;10540813;28;20043;-25
2021/08/09 11:46:32;;;;;;;0.55;0.00;;;;;;;;;;10539167;28;20040;-24
2021/08/09 11:51:36;;;;;;;0.00;0.00;;;;;;;;;;10542013;28;20062;-24
2021/08/09 11:56:43;;;;;;;0.00;0.00;;;;;;;;;;10523128;28;20051;-24
2021/08/09 12:01:52;;;;;;;0.00;0.00;;;;;;;;;;10526188;28;20127;-24
2021/08/09 12:06:57;;;;;;;0.03;0.00;;;;;;;;;;10543959;28;20414;-24
2021/08/09 12:12:01;;;;;;;0.00;0.00;;;;;;;;;;10517070;28;20090;-24
2021/08/09 12:17:13;;;;;;;0.00;0.00;;;;;;;;;;10526095;28;20035;-24
2021/08/09 12:22:19;;;;;;;0.00;0.00;;;;;;;;;;10539516;28;20063;-24
2021/08/09 12:27:23;;;;;;;0.00;0.00;;;;;;;;;;10540276;28;20070;-24
2021/08/09 12:32:27;;;;;;;0.00;0.00;;;;;;;;;;10546689;28;20506;-24
2021/08/09 12:37:34;;;;;;;0.00;0.00;;;;;;;;;;10534815;28;20047;-24
2021/08/09 12:42:36;;;;;;;0.00;0.00;;;;;;;;;;10539659;28;20043;-24
2021/08/09 12:47:39;;;;;;;0.00;0.00;;;;;;;;;;10540048;28;20043;-23
2021/08/09 12:52:44;;;;;;;0.00;0.00;;;;;;;;;;10537273;28;20101;-24
2021/08/09 12:57:52;;;;;;;0.00;0.00;;;;;;;;;;10536226;28;20052;-24
2021/08/09 13:02:55;;;;;;;0.00;0.00;;;;;;;;;;10518161;28;20060;-23
2021/08/09 13:07:59;;;;;;;0.00;0.00;;;;;;;;;;10527306;28;20047;-23
2021/08/09 13:13:02;;;;;;;0.00;0.00;;;;;;;;;;10539106;28;20043;-24
2021/08/09 13:18:04;;;;;;;0.00;0.00;;;;;;;;;;10540141;28;20039;-24
2021/08/09 13:23:13;;;;;;;0.00;0.00;;;;;;;;;;10532476;28;20047;-24
2021/08/09 13:28:16;;;;;;;0.00;0.00;;;;;;;;;;10540478;28;20080;-24
2021/08/09 13:33:19;;;;;;;0.00;0.00;;;;;;;;;;10538693;28;20040;-24
2021/08/09 13:38:23;;;;;;;0.00;0.00;;;;;;;;;;10543253;28;20040;-24
2021/08/09 13:43:26;;;;;;;0.05;0.00;;;;;;;;;;10534944;28;20044;-24
2021/08/09 13:48:29;;;;;;;0.00;0.00;;;;;;;;;;10538188;28;20050;-25
2021/08/09 13:53:34;;;;;;;0.00;0.00;;;;;;;;;;10536992;28;20059;-24
2021/08/09 13:58:38;;;;;;;0.00;0.00;;;;;;;;;;10542884;28;20408;-25
2021/08/09 14:03:41;;;;;;;0.00;0.00;;;;;;;;;;10549887;28;20054;-24
2021/08/09 14:08:45;;;;;;;0.00;0.00;;;;;;;;;;10547044;28;20129;-25
2021/08/09 14:13:48;;;;;;;0.00;0.00;;;;;;;;;;10541565;28;20048;-24
2021/08/09 14:18:50;;;;;;;0.00;0.00;;;;;;;;;;10547407;28;20043;-24
2021/08/09 14:23:55;;;;;;;0.00;0.00;;;;;;;;;;10521907;28;20405;-24
2021/08/09 14:29:00;;;;;;;0.00;0.00;;;;;;;;;;10527321;28;20047;-24
2021/08/09 14:34:04;;;;;;;0.00;0.00;;;;;;;;;;10528659;28;20062;-24
2021/08/09 14:39:16;;;;;;;0.00;0.00;;;;;;;;;;10529945;28;20503;-24
2021/08/09 14:44:30;;;;;;;0.00;0.00;;;;;;;;;;10524938;28;20048;-24
2021/08/09 14:49:35;;;;;;;0.00;0.00;;;;;;;;;;10512016;28;20170;-24
2021/08/09 14:54:43;;;;;;;0.00;0.00;;;;;;;;;;10517121;28;20056;-24
2021/08/09 14:59:48;;;;;;;0.00;0.00;;;;;;;;;;10516924;28;20074;-24
2021/08/09 15:04:53;;;;;;;0.00;0.00;;;;;;;;;;10520731;28;20676;-24
2021/08/09 15:10:06;;;;;;;0.00;0.00;;;;;;;;;;10520342;28;20052;-24
2021/08/09 15:15:09;;;;;;;0.00;0.00;;;;;;;;;;10535169;28;20054;-24
2021/08/09 15:20:12;;;;;;;0.43;0.00;;;;;;;;;;10547197;28;21006;-24
2021/08/09 15:25:17;;;;;;;0.00;0.00;;;;;;;;;;10541252;28;20048;-25
2021/08/09 15:30:19;;;;;;;0.00;0.00;;;;;;;;;;10547136;28;20043;-24
2021/08/09 15:35:22;;;;;;;0.00;0.00;;;;;;;;;;10535026;28;20044;-24
2021/08/09 15:40:26;;;;;;;0.00;0.00;;;;;;;;;;10546188;28;20481;-25
2021/08/09 15:45:29;;;;;;;0.00;0.00;;;;;;;;;;10543332;28;20044;-25
2021/08/09 15:50:32;;;;;;;0.00;0.00;;;;;;;;;;10541163;28;20048;-24
2021/08/09 15:55:36;;;;;;;0.00;0.00;;;;;;;;;;10543280;28;20056;-24
2021/08/09 16:00:39;;;;;;;0.00;0.00;;;;;;;;;;10545759;28;20042;-24
2021/08/09 16:05:43;;;;;;;0.00;0.00;;;;;;;;;;10537842;28;20048;-24
2021/08/09 16:10:47;;;;;;;0.47;0.00;;;;;;;;;;10545657;28;20086;-26
2021/08/09 16:15:50;;;;;;;0.00;0.00;;;;;;;;;;10545369;28;20068;-25
2021/08/09 16:21:05;;;;;;;0.00;0.00;;;;;;;;;;10541438;28;20123;-24
2021/08/09 16:26:09;;;;;;;0.00;0.00;;;;;;;;;;10539122;28;20040;-24
2021/08/09 16:31:12;;;;;;;0.00;0.00;;;;;;;;;;10544970;28;20042;-26
2021/08/09 16:36:15;;;;;;;0.00;0.00;;;;;;;;;;10522464;28;20047;-28
2021/08/09 16:41:19;;;;;;;0.00;0.00;;;;;;;;;;10535941;28;20048;-26
2021/08/09 16:46:22;;;;;;;0.00;0.00;;;;;;;;;;10535862;28;20039;-26
2021/08/09 16:51:25;;;;;;;0.00;0.00;;;;;;;;;;10529172;28;20047;-26
2021/08/09 16:56:29;;;;;;;0.28;0.00;;;;;;;;;;10537950;28;20953;-27
2021/08/09 17:01:32;;;;;;;0.00;0.00;;;;;;;;;;10538097;28;20043;-28
2021/08/09 17:06:34;;;;;;;0.00;0.00;;;;;;;;;;10542739;28;20048;-28
2021/08/09 17:11:39;;;;;;;0.00;0.00;;;;;;;;;;10537085;28;20497;-27
2021/08/09 17:16:41;;;;;;;0.00;0.00;;;;;;;;;;10530369;28;20036;-26
2021/08/09 17:21:44;;;;;;;0.00;0.00;;;;;;;;;;10536224;28;20064;-28
2021/08/09 17:26:48;;;;;;;0.00;0.00;;;;;;;;;;10533392;28;20397;-26
2021/08/09 17:31:52;;;;;;;0.00;0.00;;;;;;;;;;10535916;28;20044;-26
2021/08/09 17:36:55;;;;;;;0.00;0.00;;;;;;;;;;10547286;28;20470;-28
2021/08/09 17:41:59;;;;;;;0.10;0.08;;;;;;;;;;10549268;28;20043;-26
2021/08/09 17:47:02;;;;;;;0.43;0.10;;;;;;;;;;10543511;28;20048;-28
2021/08/09 17:52:15;;;;;;;0.00;0.00;;;;;;;;;;10546731;28;20097;-25
2021/08/09 17:57:20;;;;;;;0.00;0.00;;;;;;;;;;10530540;28;20151;-26
2021/08/09 18:02:22;;;;;;;0.10;0.00;;;;;;;;;;10540729;28;20063;-26
2021/08/09 18:07:26;;;;;;;0.00;0.00;;;;;;;;;;10538719;28;20071;-26
2021/08/09 18:12:30;;;;;;;0.00;0.00;;;;;;;;;;10543080;28;20036;-26
2021/08/09 18:17:33;;;;;;;0.00;0.00;;;;;;;;;;10537466;28;20044;-27
2021/08/09 18:22:36;;;;;;;0.00;0.00;;;;;;;;;;10542525;28;20048;-26
2021/08/09 18:27:40;;;;;;;0.00;0.00;;;;;;;;;;10538191;28;20046;-25
2021/08/09 18:32:43;;;;;;;0.00;0.00;;;;;;;;;;10541277;28;20052;-26
2021/08/09 18:37:46;;;;;;;0.00;0.00;;;;;;;;;;10544392;28;20051;-25
2021/08/09 18:42:50;;;;;;;0.00;0.00;;;;;;;;;;10538835;28;20040;-25
2021/08/09 18:47:54;;;;;;;0.00;0.00;;;;;;;;;;10539918;28;20497;-25
2021/08/09 18:52:56;;;;;;;0.00;0.00;;;;;;;;;;10511247;28;20056;-24
2021/08/09 18:58:03;;;;;;;0.00;0.00;;;;;;;;;;10512765;28;20048;-26
2021/08/09 19:03:05;;;;;;;0.00;0.00;;;;;;;;;;10511577;28;20413;-26
2021/08/09 19:08:08;;;;;;;0.00;0.00;;;;;;;;;;10517601;28;20143;-26
2021/08/09 19:13:12;;;;;;;0.00;0.00;;;;;;;;;;10516437;28;20054;-26
2021/08/09 19:18:17;;;;;;;0.00;0.00;;;;;;;;;;10512797;28;20033;-27
2021/08/09 19:23:19;;;;;;;0.00;0.00;;;;;;;;;;10512364;28;20047;-26
2021/08/09 19:28:23;;;;;;;0.30;0.00;;;;;;;;;;10516656;28;20059;-26
2021/08/09 19:33:26;;;;;;;0.00;0.00;;;;;;;;;;10507965;28;20579;-27
2021/08/09 19:38:29;;;;;;;0.00;0.00;;;;;;;;;;10515704;28;20481;-26
2021/08/09 19:43:36;;;;;;;0.00;0.00;;;;;;;;;;10511238;28;20051;-26
2021/08/09 19:48:39;;;;;;;0.00;0.00;;;;;;;;;;10519863;28;20047;-25
2021/08/09 19:53:41;;;;;;;0.00;0.00;;;;;;;;;;10497491;28;20505;-26
2021/08/09 19:58:45;;;;;;;0.00;0.00;;;;;;;;;;10528821;28;20044;-26
2021/08/09 20:03:48;;;;;;;0.47;0.10;;;;;;;;;;10519590;28;20060;-27
2021/08/09 20:08:51;;;;;;;0.00;0.00;;;;;;;;;;10528603;28;20056;-26
2021/08/09 20:13:55;;;;;;;0.00;0.00;;;;;;;;;;10534270;28;20052;-26
2021/08/09 20:19:01;;;;;;;0.10;0.00;;;;;;;;;;10529517;28;20052;-26
2021/08/09 20:24:04;;;;;;;0.50;0.10;;;;;;;;;;10523393;28;20079;-26
2021/08/09 20:29:08;;;;;;;0.73;0.00;;;;;;;;;;10533897;28;20566;-25
2021/08/09 20:34:11;;;;;;;0.00;0.00;;;;;;;;;;10533662;28;20040;-25
2021/08/09 20:39:16;;;;;;;0.00;0.00;;;;;;;;;;10527824;28;20451;-26
2021/08/09 20:44:20;;;;;;;0.00;0.00;;;;;;;;;;10532782;28;20044;-26
2021/08/09 20:49:23;;;;;;;0.10;0.00;;;;;;;;;;10532474;28;20040;-25
2021/08/09 20:54:26;;;;;;;0.00;0.00;;;;;;;;;;10525931;28;20056;-26
2021/08/09 20:59:30;;;;;;;0.00;0.00;;;;;;;;;;10523059;28;20075;-25
2021/08/09 21:04:34;;;;;;;0.00;0.00;;;;;;;;;;10536007;28;20048;-25
2021/08/09 21:09:37;;;;;;;0.00;0.00;;;;;;;;;;10536365;28;20126;-26
2021/08/09 21:14:41;;;;;;;0.00;0.00;;;;;;;;;;10539450;28;20063;-26
2021/08/09 21:19:44;;;;;;;0.20;0.10;;;;;;;;;;10545499;28;20036;-26
2021/08/09 21:24:48;;;;;;;0.00;0.00;;;;;;;;;;10542435;28;20123;-27
2021/08/09 21:29:52;;;;;;;0.00;0.00;;;;;;;;;;10544584;28;20056;-27
2021/08/09 21:34:55;;;;;;;0.00;0.00;;;;;;;;;;10544208;28;20051;-27
2021/08/09 21:39:57;;;;;;;0.00;0.00;;;;;;;;;;10546444;28;20042;-27
2021/08/09 21:45:02;;;;;;;0.00;0.00;;;;;;;;;;10536386;28;20040;-26
2021/08/09 21:50:06;;;;;;;0.00;0.00;;;;;;;;;;10531354;28;20043;-26
2021/08/09 21:55:09;;;;;;;0.00;0.00;;;;;;;;;;10529555;28;20528;-26
2021/08/09 22:00:14;;;;;;;0.00;0.00;;;;;;;;;;10541198;28;20122;-27
2021/08/09 22:05:17;;;;;;;0.00;0.00;;;;;;;;;;10537902;28;20071;-27
2021/08/09 22:10:20;;;;;;;0.00;0.00;;;;;;;;;;10544373;28;20088;-25
2021/08/09 22:15:25;;;;;;;0.00;0.00;;;;;;;;;;10539383;28;20047;-26
2021/08/09 22:20:27;;;;;;;0.00;0.00;;;;;;;;;;10537687;28;20039;-26
2021/08/09 22:25:30;;;;;;;0.00;0.00;;;;;;;;;;10534515;28;20055;-26
2021/08/09 22:30:36;;;;;;;0.00;0.00;;;;;;;;;;10540147;28;20074;-25
2021/08/09 22:35:39;;;;;;;0.00;0.00;;;;;;;;;;10535792;28;20056;-26
2021/08/09 22:40:41;;;;;;;0.00;0.00;;;;;;;;;;10543472;28;20481;-26
2021/08/09 22:45:45;;;;;;;0.00;0.00;;;;;;;;;;10538296;28;20147;-28
2021/08/09 22:50:48;;;;;;;0.00;0.00;;;;;;;;;;10541456;28;20043;-26
2021/08/09 22:55:52;;;;;;;0.00;0.00;;;;;;;;;;10534647;28;20121;-25
2021/08/09 23:00:56;;;;;;;0.00;0.00;;;;;;;;;;10537493;28;20051;-26
2021/08/09 23:05:59;;;;;;;0.00;0.00;;;;;;;;;;10534258;28;20058;-26
2021/08/09 23:11:02;;;;;;;0.00;0.00;;;;;;;;;;10537142;28;20105;-26
2021/08/09 23:16:06;;;;;;;0.00;0.00;;;;;;;;;;10538209;28;20819;-27
2021/08/09 23:21:09;;;;;;;0.00;0.00;;;;;;;;;;10542518;28;20055;-26
2021/08/09 23:26:12;;;;;;;0.00;0.00;;;;;;;;;;10535678;28;20044;-26
2021/08/09 23:31:16;;;;;;;0.00;0.00;;;;;;;;;;10541741;28;20032;-26
2021/08/09 23:36:19;;;;;;;0.00;0.00;;;;;;;;;;10534806;28;20052;-26
2021/08/09 23:41:22;;;;;;;0.00;0.00;;;;;;;;;;10541208;28;20048;-26
2021/08/09 23:46:26;;;;;;;0.00;0.00;;;;;;;;;;10521742;28;20568;-27
2021/08/09 23:51:29;;;;;;;0.00;0.00;;;;;;;;;;10506473;28;20055;-29
2021/08/09 23:56:32;;;;;;;0.00;0.00;;;;;;;;;;10540103;28;20048;-26
